createdAt,value
2019-04-07T00:02:01.822Z,75.42
2019-04-07T00:05:13.057Z,75.64
2019-04-07T00:08:14.513Z,75.21
2019-04-07T00:11:19.611Z,75.67
2019-04-07T00:14:24.826Z,75.22
2019-04-07T00:17:29.335Z,75.69
2019-04-07T00:20:33.838Z,76.43
2019-04-07T00:23:38.282Z,75.22
2019-04-07T00:26:43.026Z,75.13
2019-04-07T00:29:47.456Z,75.89
2019-04-07T00:32:52.023Z,74.79
2019-04-07T00:35:56.917Z,75.92
2019-04-07T00:39:01.597Z,76.36
2019-04-07T00:42:06.042Z,76.54
2019-04-07T00:45:11.525Z,76.47
2019-04-07T00:48:15.962Z,76.17
2019-04-07T00:51:20.696Z,76.64
2019-04-07T00:54:25.483Z,76.16
2019-04-07T00:57:30.321Z,75.20
2019-04-07T01:00:37.309Z,76.32
2019-04-07T01:03:42.305Z,76.51
2019-04-07T01:06:47.411Z,75.37
2019-04-07T01:09:51.800Z,75.99
2019-04-07T01:12:56.644Z,75.03
2019-04-07T01:16:01.381Z,76.03
2019-04-07T01:19:07.141Z,75.65
2019-04-07T01:22:11.831Z,76.33
2019-04-07T01:25:16.343Z,76.50
2019-04-07T01:28:21.028Z,77.38
2019-04-07T01:31:25.545Z,79.16
2019-04-07T01:34:30.416Z,79.93
2019-04-07T01:37:35.261Z,79.18
2019-04-07T01:40:40.152Z,79.43
2019-04-07T01:43:49.401Z,79.39
2019-04-07T01:46:55.962Z,77.93
2019-04-07T01:50:18.598Z,78.69
2019-04-07T01:53:27.978Z,78.06
2019-04-07T01:56:52.745Z,77.59
2019-04-07T02:00:13.866Z,76.61
2019-04-07T02:03:36.316Z,76.65
2019-04-07T02:06:42.391Z,76.22
2019-04-07T02:09:54.535Z,78.43
2019-04-07T02:13:01.117Z,81.10
2019-04-07T02:16:08.104Z,81.81
2019-04-07T02:19:12.658Z,79.09
2019-04-07T02:22:19.103Z,77.83
2019-04-07T02:25:25.232Z,77.14
2019-04-07T02:28:49.571Z,76.15
2019-04-07T02:31:55.937Z,76.48
2019-04-07T02:35:17.929Z,75.32
2019-04-07T02:38:27.449Z,75.18
2019-04-07T02:41:40.187Z,75.66
2019-04-07T02:44:52.569Z,76.00
2019-04-07T02:48:10.811Z,75.71
2019-04-07T02:51:32.174Z,76.38
2019-04-07T02:54:38.512Z,76.19
2019-04-07T02:57:47.820Z,76.33
2019-04-07T03:01:00.568Z,75.73
2019-04-07T03:04:22.955Z,76.02
2019-04-07T03:07:32.499Z,76.13
2019-04-07T03:10:38.796Z,76.16
2019-04-07T03:13:55.048Z,75.89
2019-04-07T03:17:17.128Z,75.77
2019-04-07T03:20:39.273Z,76.25
2019-04-07T03:23:48.656Z,76.45
2019-04-07T03:27:11.456Z,75.98
2019-04-07T03:30:22.419Z,76.66
2019-04-07T03:33:31.904Z,76.18
2019-04-07T03:37:15.156Z,76.35
2019-04-07T03:39:59.177Z,75.74
2019-04-07T03:43:09.469Z,75.98
2019-04-07T03:46:30.844Z,76.76
2019-04-07T03:49:36.923Z,75.14
2019-04-07T03:52:46.777Z,75.29
2019-04-07T03:56:02.064Z,75.57
2019-04-07T03:59:08.423Z,75.46
2019-04-07T04:02:14.794Z,76.07
2019-04-07T04:05:22.056Z,76.28
2019-04-07T04:08:45.666Z,76.65
2019-04-07T04:12:05.028Z,76.71
2019-04-07T04:15:15.073Z,75.85
2019-04-07T04:18:20.587Z,75.48
2019-04-07T04:21:25.949Z,75.08
2019-04-07T04:24:30.829Z,75.81
2019-04-07T04:27:35.433Z,76.36
2019-04-07T04:30:40.408Z,76.52
2019-04-07T04:33:44.811Z,76.26
2019-04-07T04:36:50.257Z,77.25
2019-04-07T04:39:55.777Z,77.92
2019-04-07T04:43:00.381Z,78.06
2019-04-07T04:46:08.638Z,77.24
2019-04-07T04:49:11.925Z,77.48
2019-04-07T04:52:17.586Z,76.82
2019-04-07T04:55:22.487Z,77.00
2019-04-07T04:58:27.081Z,78.36
2019-04-07T05:01:32.202Z,78.57
2019-04-07T05:04:37.358Z,78.40
2019-04-07T05:07:55.652Z,78.83
2019-04-07T05:10:48.331Z,78.12
2019-04-07T05:13:53.006Z,78.15
2019-04-07T05:16:57.489Z,78.55
2019-04-07T05:20:02.930Z,79.00
2019-04-07T05:23:07.834Z,79.20
2019-04-07T05:26:12.376Z,79.55
2019-04-07T05:29:17.133Z,79.61
2019-04-07T05:32:22.305Z,80.18
2019-04-07T05:35:27.504Z,80.03
2019-04-07T05:38:32.088Z,79.29
2019-04-07T05:41:37.208Z,79.87
2019-04-07T05:44:42.187Z,80.33
2019-04-07T05:47:48.682Z,79.23
2019-04-07T05:50:52.830Z,78.91
2019-04-07T05:53:57.264Z,79.26
2019-04-07T05:57:02.530Z,79.53
2019-04-07T06:00:15.656Z,79.58
2019-04-07T06:03:20.400Z,79.74
2019-04-07T06:06:25.861Z,80.30
2019-04-07T06:09:32.911Z,80.30
2019-04-07T06:12:39.335Z,80.05
2019-04-07T06:15:42.790Z,79.86
2019-04-07T06:18:47.746Z,79.28
2019-04-07T06:21:52.698Z,79.47
2019-04-07T06:25:00.716Z,78.85
2019-04-07T06:28:03.409Z,77.79
2019-04-07T06:31:09.278Z,77.19
2019-04-07T06:34:13.786Z,77.13
2019-04-07T06:37:18.739Z,76.93
2019-04-07T06:40:23.189Z,76.66
2019-04-07T06:43:27.622Z,75.86
2019-04-07T06:46:34.025Z,76.01
2019-04-07T06:49:47.446Z,76.04
2019-04-07T06:52:59.746Z,75.79
2019-04-07T06:56:06.392Z,74.80
2019-04-07T06:59:15.566Z,74.68
2019-04-07T07:02:29.065Z,72.07
2019-04-07T07:05:35.388Z,66.98
2019-04-07T07:08:53.034Z,62.96
2019-04-07T07:12:02.340Z,63.92
2019-04-07T07:15:21.725Z,63.30
2019-04-07T07:18:44.706Z,64.07
2019-04-07T07:22:12.714Z,65.15
2019-04-07T07:25:13.475Z,63.71
2019-04-07T07:28:18.247Z,64.74
2019-04-07T07:31:25.440Z,64.96
2019-04-07T07:34:29.464Z,64.87
2019-04-07T07:37:34.270Z,64.46
2019-04-07T07:40:38.715Z,63.91
2019-04-07T07:43:43.587Z,64.69
2019-04-07T07:46:50.415Z,63.46
2019-04-07T07:49:55.100Z,61.94
2019-04-07T07:52:59.706Z,61.87
2019-04-07T07:56:08.490Z,63.87
2019-04-07T07:59:11.078Z,64.35
2019-04-07T08:02:18.605Z,65.05
2019-04-07T08:05:22.751Z,66.78
2019-04-07T08:08:27.700Z,66.36
2019-04-07T08:11:33.835Z,65.22
2019-04-07T08:14:38.614Z,66.45
2019-04-07T08:17:43.347Z,66.24
2019-04-07T08:20:48.358Z,65.62
2019-04-07T08:23:53.561Z,64.69
2019-04-07T08:26:59.090Z,61.60
2019-04-07T08:30:11.187Z,61.31
2019-04-07T08:33:13.551Z,61.04
2019-04-07T08:36:18.304Z,59.98
2019-04-07T08:39:26.732Z,58.40
2019-04-07T08:42:28.904Z,57.49
2019-04-07T08:45:33.812Z,57.00
2019-04-07T08:48:38.812Z,56.35
2019-04-07T08:51:43.848Z,57.24
2019-04-07T08:54:51.415Z,56.50
2019-04-07T08:57:55.038Z,58.74
2019-04-07T09:00:59.615Z,58.42
2019-04-07T09:04:04.568Z,57.45
2019-04-07T09:07:09.072Z,57.01
2019-04-07T09:10:18.316Z,56.55
2019-04-07T09:13:22.482Z,56.23
2019-04-07T09:16:39.372Z,56.52
2019-04-07T09:19:46.933Z,54.96
2019-04-07T09:22:57.250Z,56.47
2019-04-07T09:26:04.184Z,57.89
2019-04-07T09:29:13.208Z,57.09
2019-04-07T09:32:22.562Z,58.03
2019-04-07T09:35:34.616Z,57.83
2019-04-07T09:38:42.120Z,57.14
2019-04-07T09:41:48.635Z,57.44
2019-04-07T09:45:02.111Z,55.10
2019-04-07T09:48:08.820Z,54.93
2019-04-07T09:51:26.909Z,56.59
2019-04-07T09:54:34.179Z,56.01
2019-04-07T09:57:57.035Z,52.85
2019-04-07T10:01:06.105Z,53.96
2019-04-07T10:04:20.523Z,52.53
2019-04-07T10:07:30.696Z,51.95
2019-04-07T10:10:45.765Z,52.91
2019-04-07T10:14:01.184Z,51.65
2019-04-07T10:17:07.648Z,53.69
2019-04-07T10:20:22.101Z,52.58
2019-04-07T10:23:43.792Z,49.42
2019-04-07T10:27:01.940Z,51.56
2019-04-07T10:30:09.974Z,49.62
2019-04-07T10:33:24.936Z,50.46
2019-04-07T10:36:49.405Z,47.29
2019-04-07T10:39:58.145Z,49.53
2019-04-07T10:43:09.645Z,47.67
2019-04-07T10:46:16.795Z,47.00
2019-04-07T10:49:38.245Z,46.76
2019-04-07T10:52:56.583Z,46.77
2019-04-07T10:56:02.740Z,46.24
2019-04-07T10:59:14.631Z,44.44
2019-04-07T11:02:23.824Z,45.21
2019-04-07T11:05:28.055Z,45.05
2019-04-07T11:08:36.582Z,42.34
2019-04-07T11:11:56.670Z,43.45
2019-04-07T11:15:12.508Z,44.63
2019-04-07T11:18:19.133Z,46.60
2019-04-07T11:21:23.798Z,46.52
2019-04-07T11:24:41.707Z,44.81
2019-04-07T11:27:50.555Z,43.21
2019-04-07T11:31:05.790Z,42.71
2019-04-07T11:34:23.937Z,41.15
2019-04-07T11:37:38.974Z,40.84
2019-04-07T11:40:49.984Z,40.24
2019-04-07T11:43:54.598Z,42.46
2019-04-07T11:47:05.033Z,42.93
2019-04-07T11:50:15.113Z,43.25
2019-04-07T11:53:21.360Z,42.84
2019-04-07T11:56:34.012Z,42.19
2019-04-07T11:59:43.697Z,42.33
2019-04-07T12:03:07.108Z,41.76
2019-04-07T12:06:25.528Z,43.31
2019-04-07T12:09:30.508Z,43.99
2019-04-07T12:12:42.487Z,44.00
2019-04-07T12:15:58.054Z,45.18
2019-04-07T12:19:04.471Z,45.19
2019-04-07T12:22:19.619Z,45.57
2019-04-07T12:25:38.449Z,43.98
2019-04-07T12:28:47.607Z,43.28
2019-04-07T12:31:56.560Z,42.02
2019-04-07T12:35:06.342Z,41.71
2019-04-07T12:38:13.482Z,42.67
2019-04-07T12:41:22.105Z,41.56
2019-04-07T12:44:34.137Z,42.68
2019-04-07T12:47:52.830Z,43.40
2019-04-07T12:51:08.429Z,41.87
2019-04-07T12:54:12.769Z,41.03
2019-04-07T12:57:38.339Z,42.54
2019-04-07T13:01:09.573Z,43.69
2019-04-07T13:04:24.382Z,43.69
2019-04-07T13:07:34.975Z,43.04
2019-04-07T13:10:48.040Z,43.40
2019-04-07T13:14:05.143Z,43.41
2019-04-07T13:17:11.596Z,43.04
2019-04-07T13:20:18.996Z,43.59
2019-04-07T13:23:26.549Z,44.60
2019-04-07T13:26:38.960Z,44.33
2019-04-07T13:29:45.524Z,43.83
2019-04-07T13:32:56.686Z,45.06
2019-04-07T13:36:02.189Z,44.92
2019-04-07T13:39:17.991Z,46.47
2019-04-07T13:42:42.827Z,47.53
2019-04-07T13:45:50.642Z,47.30
2019-04-07T13:49:00.395Z,47.60
2019-04-07T13:52:09.667Z,46.64
2019-04-07T13:55:32.309Z,47.15
2019-04-07T13:58:51.982Z,46.77
2019-04-07T14:02:01.254Z,47.32
2019-04-07T14:05:12.895Z,46.39
2019-04-07T14:08:17.019Z,46.97
2019-04-07T14:11:21.939Z,47.21
2019-04-07T14:14:30.532Z,47.15
2019-04-07T14:17:50.366Z,47.27
2019-04-07T14:21:09.417Z,47.38
2019-04-07T14:24:25.157Z,46.85
2019-04-07T14:27:40.510Z,46.39
2019-04-07T14:30:48.629Z,47.59
2019-04-07T14:33:57.626Z,48.18
2019-04-07T14:37:12.951Z,49.00
2019-04-07T14:40:19.109Z,48.67
2019-04-07T14:43:25.827Z,47.53
2019-04-07T14:46:32.638Z,46.88
2019-04-07T14:49:39.960Z,47.99
2019-04-07T14:52:54.842Z,47.82
2019-04-07T14:56:12.951Z,47.01
2019-04-07T14:59:30.696Z,47.97
2019-04-07T15:02:35.437Z,48.56
2019-04-07T15:05:48.372Z,48.54
2019-04-07T15:08:55.269Z,50.09
2019-04-07T15:12:13.606Z,48.73
2019-04-07T15:15:11.665Z,48.62
2019-04-07T15:18:15.054Z,48.55
2019-04-07T15:21:20.001Z,48.88
2019-04-07T15:24:24.728Z,48.16
2019-04-07T15:27:29.459Z,47.92
2019-04-07T15:30:33.902Z,49.43
2019-04-07T15:33:38.435Z,48.63
2019-04-07T15:36:43.940Z,48.74
2019-04-07T15:39:49.466Z,48.71
2019-04-07T15:42:54.250Z,49.64
2019-04-07T15:45:58.699Z,49.25
2019-04-07T15:49:03.790Z,50.55
2019-04-07T15:52:09.956Z,51.42
2019-04-07T15:55:15.015Z,50.80
2019-04-07T15:58:20.496Z,51.31
2019-04-07T16:01:25.074Z,51.07
2019-04-07T16:04:30.461Z,49.99
2019-04-07T16:07:35.281Z,49.29
2019-04-07T16:10:40.274Z,50.32
2019-04-07T16:13:46.211Z,49.67
2019-04-07T16:16:51.698Z,51.33
2019-04-07T16:19:56.842Z,52.36
2019-04-07T16:23:01.581Z,51.80
2019-04-07T16:26:06.645Z,53.49
2019-04-07T16:29:11.565Z,51.99
2019-04-07T16:32:15.966Z,52.92
2019-04-07T16:35:20.717Z,52.39
2019-04-07T16:38:25.430Z,51.66
2019-04-07T16:41:29.882Z,51.53
2019-04-07T16:44:37.993Z,52.36
2019-04-07T16:47:40.864Z,50.97
2019-04-07T16:50:46.269Z,51.34
2019-04-07T16:53:52.083Z,51.54
2019-04-07T16:56:58.140Z,52.42
2019-04-07T17:00:03.677Z,53.73
2019-04-07T17:03:09.958Z,53.93
2019-04-07T17:06:14.715Z,53.65
2019-04-07T17:09:24.723Z,53.26
2019-04-07T17:12:27.741Z,53.82
2019-04-07T17:15:38.188Z,54.14
2019-04-07T17:18:42.930Z,55.33
2019-04-07T17:21:47.965Z,55.80
2019-04-07T17:24:52.393Z,59.71
2019-04-07T17:28:02.225Z,60.47
2019-04-07T17:31:03.615Z,59.24
2019-04-07T17:34:10.860Z,56.94
2019-04-07T17:37:15.070Z,56.29
2019-04-07T17:40:22.592Z,57.93
2019-04-07T17:43:49.413Z,56.50
2019-04-07T17:47:06.565Z,55.38
2019-04-07T17:50:31.408Z,56.61
2019-04-07T17:53:40.132Z,56.18
2019-04-07T17:57:01.191Z,55.56
2019-04-07T18:00:18.548Z,54.76
2019-04-07T18:03:43.961Z,56.02
2019-04-07T18:06:51.320Z,55.05
2019-04-07T18:10:13.597Z,55.75
2019-04-07T18:13:39.791Z,55.43
2019-04-07T18:16:52.760Z,55.30
2019-04-07T18:20:15.824Z,54.72
2019-04-07T18:23:24.038Z,56.17
2019-04-07T18:26:46.781Z,56.09
2019-04-07T18:30:05.510Z,55.93
2019-04-07T18:33:17.583Z,56.63
2019-04-07T18:36:35.973Z,56.94
2019-04-07T18:40:01.883Z,57.41
2019-04-07T18:43:12.205Z,57.94
2019-04-07T18:46:23.694Z,59.24
2019-04-07T18:49:46.517Z,59.21
2019-04-07T18:53:04.468Z,60.21
2019-04-07T18:56:27.105Z,60.12
2019-04-07T18:59:57.834Z,60.26
2019-04-07T19:02:57.839Z,60.09
2019-04-07T19:06:08.260Z,60.54
2019-04-07T19:09:23.916Z,61.24
2019-04-07T19:12:49.047Z,61.60
2019-04-07T19:16:13.511Z,62.10
2019-04-07T19:19:34.115Z,62.19
2019-04-07T19:22:40.200Z,62.04
2019-04-07T19:25:53.749Z,62.89
2019-04-07T19:29:08.401Z,62.91
2019-04-07T19:32:31.340Z,63.02
2019-04-07T19:35:46.266Z,63.39
2019-04-07T19:38:52.672Z,63.04
2019-04-07T19:42:11.205Z,62.79
2019-04-07T19:48:50.280Z,63.31
2019-04-07T19:52:12.784Z,63.62
2019-04-07T19:55:24.938Z,63.96
2019-04-07T19:58:38.119Z,63.27
2019-04-07T20:01:46.027Z,63.83
2019-04-07T20:05:02.474Z,63.54
2019-04-07T20:08:08.560Z,63.12
2019-04-07T20:11:13.826Z,63.06
2019-04-07T20:14:26.274Z,63.17
2019-04-07T20:17:45.259Z,62.81
2019-04-07T20:21:01.130Z,62.42
2019-04-07T20:24:07.032Z,62.44
2019-04-07T20:27:29.771Z,62.74
2019-04-07T20:30:51.302Z,62.61
2019-04-07T20:34:12.612Z,62.75
2019-04-07T20:37:18.703Z,63.79
2019-04-07T20:40:25.809Z,63.62
2019-04-07T20:43:38.412Z,64.15
2019-04-07T20:46:44.866Z,64.65
2019-04-07T20:49:56.869Z,64.70
2019-04-07T20:53:12.474Z,64.77
2019-04-07T20:56:13.023Z,64.92
2019-04-07T20:59:27.064Z,65.67
2019-04-07T21:02:35.016Z,66.10
2019-04-07T21:05:58.161Z,66.88
2019-04-07T21:09:10.272Z,67.53
2019-04-07T21:12:25.333Z,67.07
2019-04-07T21:15:41.154Z,67.33
2019-04-07T21:18:45.544Z,66.58
2019-04-07T21:22:01.263Z,67.27
2019-04-07T21:25:11.927Z,66.99
2019-04-07T21:28:24.613Z,67.36
2019-04-07T21:31:28.937Z,67.36
2019-04-07T21:34:36.473Z,66.74
2019-04-07T21:37:58.893Z,67.19
2019-04-07T21:41:13.363Z,67.70
2019-04-07T21:44:28.347Z,68.53
2019-04-07T21:47:37.467Z,69.03
2019-04-07T21:50:43.451Z,69.51
2019-04-07T21:53:55.104Z,68.60
2019-04-07T21:57:02.325Z,67.57
2019-04-07T22:00:10.649Z,67.31
2019-04-07T22:03:23.610Z,67.95
2019-04-07T22:06:31.124Z,67.25
2019-04-07T22:09:51.868Z,67.07
2019-04-07T22:13:00.241Z,67.54
2019-04-07T22:16:04.217Z,67.51
2019-04-07T22:19:11.061Z,67.58
2019-04-07T22:22:14.943Z,67.41
2019-04-07T22:25:26.513Z,67.47
2019-04-07T22:28:31.735Z,67.74
2019-04-07T22:31:43.920Z,68.10
2019-04-07T22:34:47.045Z,67.83
2019-04-07T22:37:51.757Z,67.80
2019-04-07T22:40:57.078Z,67.82
2019-04-07T22:44:01.530Z,67.73
2019-04-07T22:47:07.013Z,67.60
2019-04-07T22:50:12.816Z,67.36
2019-04-07T22:53:21.297Z,67.82
2019-04-07T22:56:24.356Z,68.18
2019-04-07T22:59:28.927Z,67.89
2019-04-07T23:02:33.691Z,67.01
2019-04-07T23:05:38.123Z,67.34
2019-04-07T23:08:43.257Z,68.61
2019-04-07T23:11:48.235Z,69.25
2019-04-07T23:14:53.164Z,69.71
2019-04-07T23:17:57.965Z,70.38
2019-04-07T23:21:03.115Z,71.03
2019-04-07T23:24:07.766Z,71.86
2019-04-07T23:27:12.472Z,71.57
2019-04-07T23:30:23.609Z,71.32
2019-04-07T23:33:28.108Z,71.96
2019-04-07T23:36:32.549Z,71.44
2019-04-07T23:39:37.715Z,72.35
2019-04-07T23:42:42.241Z,71.68
2019-04-07T23:45:47.521Z,71.61
2019-04-07T23:48:52.430Z,71.25
2019-04-07T23:51:57.164Z,71.28
2019-04-07T23:55:02.450Z,70.31
2019-04-07T23:58:06.946Z,70.18
